Flight Track Log - Related Links

Times and Time Zones

All times are in EST time to prevent confusion due to time zone crossing. See the FFT929 flight status page for this flight to view local times or setup timezone preferences in your user account.


Time Position Orientation Groundspeed Altitude Reporting Facility
EST Latitude Longitude Course Direction KTS MPH feet Rate Location/Type
Wed 12:16:17 PM 40.3160 -74.8100 295° West 195 224 1,500  Level FlightAware ADS-B
Wed 12:16:50 PM 40.3090 -74.8500 257° West 224 258 2,100 2,471 Climbing FlightAware ADS-B
Wed 12:17:25 PM 40.2900 -74.8900 238° Southwest 229 264 4,300 3,083 Climbing FlightAware ADS-B
Wed 12:18:02 PM 40.2680 -74.9380 239° Southwest 269 310 5,800 2,000 Climbing FlightAware ADS-B
Wed 12:18:34 PM 40.2460 -74.9840 238° Southwest 269 310 6,600 716 Climbing FlightAware ADS-B
Wed 12:19:09 PM 40.2230 -75.0310 237° Southwest 268 308 6,600  Level FlightAware ADS-B
Wed 12:19:46 PM 40.1990 -75.0840 239° Southwest 272 313 6,600 98 Level FlightAware ADS-B
Wed 12:20:10 PM 40.1830 -75.1160 237° Southwest 272 313 6,700 1,826 Climbing FlightAware ADS-B
Wed 12:20:55 PM 40.1530 -75.1790 238° Southwest 274 315 8,700 2,000 Climbing FlightAware ADS-B
Wed 12:21:34 PM 40.1250 -75.2380 238° Southwest 318 366 9,500 761 Climbing FlightAware ADS-B
Wed 12:22:06 PM 40.1000 -75.2910 238° Southwest 319 367 9,600 91 Climbing FlightAware ADS-B
Wed 12:22:40 PM 40.0750 -75.3440 238° Southwest 321 369 9,600  Level FlightAware ADS-B
Wed 12:23:17 PM 40.0460 -75.4040 238° Southwest 321 369 9,600  Level FlightAware ADS-B
Wed 12:24:04 PM 40.0080 -75.4840 238° Southwest 325 374 9,600  Level FlightAware ADS-B
Wed 12:24:39 PM 39.9790 -75.5440 238° Southwest 326 375 9,600  Level FlightAware ADS-B
Wed 12:25:09 PM 39.9550 -75.5930 237° Southwest 325 374 9,600 245 Level FlightAware ADS-B
Wed 12:25:28 PM 39.9440 -75.6250 246° West 316 364 9,800 2,190 Climbing FlightAware ADS-B
Wed 12:26:12 PM 39.9480 -75.7110 273° West 324 373 11,900 2,973 Climbing FlightAware ADS-B
Wed 12:27:19 PM 39.9610 -75.8420 277° West 331 381 15,300 2,836 Climbing FlightAware ADS-B
Wed 12:28:02 PM 39.9680 -75.9240 276° West 339 390 17,100 2,595 Climbing FlightAware ADS-B
Wed 12:28:33 PM 39.9740 -75.9890 277° West 352 405 18,500 2,400 Climbing FlightAware ADS-B
Wed 12:29:12 PM 39.9610 -76.0700 258° West 375 432 19,900 1,926 Climbing FlightAware ADS-B
Wed 12:29:54 PM 39.9450 -76.1660 258° West 379 436 21,100 1,977 Climbing FlightAware ADS-B
Wed 12:30:40 PM 39.9550 -76.2680 277° West 372 428 22,800 2,051 Climbing FlightAware ADS-B
Wed 12:31:13 PM 39.9630 -76.3340 279° West 377 434 23,800 1,692 Climbing FlightAware ADS-B
Wed 12:31:58 PM 39.9770 -76.4430 280° West 394 453 25,000 1,440 Climbing FlightAware ADS-B
Wed 12:32:28 PM 39.9850 -76.5110 279° West 405 466 25,600 1,543 Climbing FlightAware ADS-B
Wed 12:33:08 PM 39.9960 -76.6050 279° West 412 474 26,800 1,737 Climbing FlightAware ADS-B
Wed 12:33:44 PM 40.0080 -76.7050 279° West 418 481 27,800 1,462 Climbing FlightAware ADS-B
Wed 12:34:26 PM 40.0200 -76.8060 279° West 427 491 28,700 1,215 Climbing FlightAware ADS-B
Wed 12:35:03 PM 40.0320 -76.9090 279° West 442 509 29,400 1,200 Climbing FlightAware ADS-B
Wed 12:35:41 PM 40.0430 -77.0060 278° West 447 514 30,200 1,412 Climbing FlightAware ADS-B
Wed 12:36:11 PM 40.0520 -77.0870 278° West 448 516 31,000 1,831 Climbing FlightAware ADS-B
Wed 12:36:40 PM 40.0610 -77.1620 279° West 443 510 32,000 2,057 Climbing FlightAware ADS-B
Wed 12:37:21 PM 40.0730 -77.2730 278° West 435 501 33,400 1,642 Climbing FlightAware ADS-B
Wed 12:38:15 PM 40.0890 -77.4150 278° West 435 501 34,600 1,553 Climbing FlightAware ADS-B
Wed 12:38:46 PM 40.0980 -77.4930 279° West 426 490 35,600 875 Climbing FlightAware ADS-B
Wed 12:39:51 PM 40.1160 -77.6560 278° West 413 475 36,000 247 Climbing FlightAware ADS-B
Wed 12:40:23 PM 40.1250 -77.7350 278° West 420 483 36,000  Level FlightAware ADS-B
Wed 12:41:05 PM 40.1350 -77.8430 277° West 439 505 36,000  Level FlightAware ADS-B
Wed 12:42:07 PM 40.1590 -78.0040 281° West 437 503 36,000  Level FlightAware ADS-B
Wed 12:42:38 PM 40.1740 -78.0810 284° West 435 501 36,000  Level FlightAware ADS-B
Wed 12:43:19 PM 40.1960 -78.1870 285° West 439 505 36,000  Level FlightAware ADS-B
Wed 12:43:53 PM 40.2130 -78.2750 284° West 442 509 36,000  Level FlightAware ADS-B
Wed 12:44:23 PM 40.2270 -78.3480 284° West 443 510 36,000 98 Level FlightAware ADS-B
Wed 12:44:54 PM 40.2440 -78.4320 285° West 442 509 36,100  Climbing FlightAware ADS-B
Wed 12:45:35 PM 40.2650 -78.5390 284° West 441 507 36,000 -87 Descending FlightAware ADS-B
Wed 12:46:03 PM 40.2790 -78.6100 285° West 440 506 36,000 -185 Level FlightAware ADS-B
Wed 12:46:40 PM 40.2970 -78.7060 284° West 436 502 35,800 -405 Descending FlightAware ADS-B
Wed 12:47:17 PM 40.3160 -78.7990 285° West 428 493 35,500 -516 Descending FlightAware ADS-B
Wed 12:48:13 PM 40.3430 -78.9420 284° West 435 501 35,000 -500 Descending FlightAware ADS-B
Wed 12:48:41 PM 40.3570 -79.0150 284° West 437 503 34,800 -393 Descending FlightAware ADS-B
Wed 12:49:14 PM 40.3730 -79.0970 284° West 436 502 34,600 -500 Descending FlightAware ADS-B
Wed 12:50:17 PM 40.4040 -79.2600 284° West 430 495 34,000 -333 Descending FlightAware ADS-B
Wed 12:51:02 PM 40.4250 -79.3730 284° West 428 493 34,000  Level FlightAware ADS-B
Wed 12:51:37 PM 40.4420 -79.4620 284° West 433 498 34,000  Level FlightAware ADS-B
Wed 12:52:14 PM 40.4590 -79.5560 283° West 432 497 34,000  Level FlightAware ADS-B
Wed 12:52:53 PM 40.4770 -79.6530 284° West 431 496 34,000  Level FlightAware ADS-B
Wed 12:53:25 PM 40.4920 -79.7350 284° West 431 496 34,000  Level FlightAware ADS-B
Wed 12:54:08 PM 40.5120 -79.8440 284° West 431 496 34,000  Level FlightAware ADS-B
Wed 12:54:36 PM 40.5250 -79.9150 284° West 431 496 34,000  Level FlightAware ADS-B
Wed 12:55:14 PM 40.5430 -80.0130 284° West 432 497 34,000 -182 Level FlightAware ADS-B
Wed 12:56:15 PM 40.5700 -80.1610 284° West 433 498 33,700 -672 Descending FlightAware ADS-B
Wed 12:57:10 PM 40.5960 -80.3090 283° West 434 499 32,700 -1,525 Descending FlightAware ADS-B
Wed 12:58:17 PM 40.6260 -80.4770 283° West 414 476 30,600 -1,653 Descending FlightAware ADS-B
Wed 12:58:48 PM 40.6390 -80.5500 283° West 414 476 30,000 -522 Descending FlightAware ADS-B
Wed 12:59:26 PM 40.6560 -80.6480 283° West 413 475 30,000  Level FlightAware ADS-B
Wed 01:00:07 PM 40.6780 -80.7410 287° West 398 458 30,000  Level FlightAware ADS-B
Wed 01:00:57 PM 40.7250 -80.8470 300° West 391 450 30,000  Level FlightAware ADS-B
Wed 01:01:51 PM 40.7760 -80.9510 303° West 392 451 30,000  Level FlightAware ADS-B
Wed 01:02:49 PM 40.8330 -81.0680 303° West 391 450 30,000  Level FlightAware ADS-B
Wed 01:03:47 PM 40.8910 -81.1870 303° West 390 449 30,000  Level FlightAware ADS-B
Wed 01:04:33 PM 40.9350 -81.2770 303° West 389 448 30,000  Level FlightAware ADS-B
Wed 01:05:09 PM 40.9700 -81.3490 303° West 391 450 30,000  Level FlightAware ADS-B
Wed 01:05:43 PM 41.0040 -81.4200 302° West 391 450 30,000  Level FlightAware ADS-B
Wed 01:06:20 PM 41.0370 -81.4890 302° West 391 450 30,000 -1,217 Level FlightAware ADS-B
Wed 01:06:52 PM 41.0680 -81.5530 303° West 404 465 28,600 -2,804 Descending FlightAware ADS-B
Wed 01:07:52 PM 41.1310 -81.6840 303° West 393 452 25,700 -2,694 Descending FlightAware ADS-B
Wed 01:08:30 PM 41.1670 -81.7590 303° West 380 437 24,200 -1,121 Descending FlightAware ADS-B
Wed 01:09:23 PM 41.2150 -81.8610 302° West 355 409 24,000 -124 Descending FlightAware ADS-B
Wed 01:10:07 PM 41.2520 -81.9390 302° West 357 411 24,000 -76 Level FlightAware ADS-B
Wed 01:10:42 PM 41.2830 -82.0020 303° West 357 411 23,900 -1,521 Descending FlightAware ADS-B
Wed 01:11:18 PM 41.3160 -82.0730 302° West 367 422 22,200 -2,824 Descending FlightAware ADS-B
Wed 01:11:33 PM 41.3310 -82.1040 303° West 368 423 21,500 -2,368 Descending FlightAware ADS-B
Wed 01:12:34 PM 41.3850 -82.2060 305° West 352 405 19,200 -2,330 Descending FlightAware ADS-B
Wed 01:13:16 PM 41.4310 -82.2820 309° West 343 395 17,500 -2,056 Descending FlightAware ADS-B
Wed 01:14:22 PM 41.4910 -82.3830 308° West 326 375 15,500 -1,748 Descending FlightAware ADS-B
Wed 01:14:59 PM 41.5240 -82.4390 308° West 314 361 14,500 -1,169 Descending FlightAware ADS-B
Wed 01:15:39 PM 41.5600 -82.5000 308° West 301 346 14,000 -750 Descending FlightAware ADS-B
Wed 01:16:03 PM 41.5810 -82.5350 309° West 301 346 13,700 -725 Descending FlightAware ADS-B
Wed 01:17:10 PM 41.6380 -82.6310 308° West 298 343 12,900 -771 Descending FlightAware ADS-B
Wed 01:17:52 PM 41.6770 -82.6970 308° West 296 341 12,300 -750 Descending FlightAware ADS-B
Wed 01:18:30 PM 41.7020 -82.7390 309° West 294 338 11,900 -689 Descending FlightAware ADS-B
Wed 01:18:53 PM 41.7230 -82.7740 309° West 295 339 11,600 -281 Descending FlightAware ADS-B
Wed 01:19:34 PM 41.7640 -82.8250 317° Northwest 296 341 11,600  Level FlightAware ADS-B
Wed 01:20:22 PM 41.8140 -82.8850 318° Northwest 293 337 11,600  Level FlightAware ADS-B
Wed 01:20:50 PM 41.8420 -82.9180 319° Northwest 293 337 11,600  Level FlightAware ADS-B
Wed 01:21:55 PM 41.9110 -83.0010 318° Northwest 291 335 11,600  Level FlightAware ADS-B
Wed 01:22:36 PM 41.9480 -83.0460 318° Northwest 291 335 11,600  Level FlightAware ADS-B
Wed 01:23:11 PM 41.9890 -83.0950 318° Northwest 292 336 11,600 -243 Level FlightAware ADS-B
Wed 01:23:50 PM 42.0290 -83.1430 318° Northwest 277 319 11,300 -560 Descending FlightAware ADS-B
Wed 01:24:26 PM 42.0610 -83.1820 318° Northwest 257 296 10,900 -656 Descending FlightAware ADS-B
Wed 01:24:54 PM 42.0860 -83.2120 318° Northwest 242 278 10,600 -277 Descending FlightAware ADS-B
Wed 01:25:31 PM 42.1200 -83.2370 331° Northwest 252 290 10,600 -162 Level FlightAware ADS-B
Wed 01:26:08 PM 42.1620 -83.2170 19° North 254 292 10,400 -1,037 Descending FlightAware ADS-B
Wed 01:26:52 PM 42.2090 -83.1890 24° Northeast 252 290 9,200 -1,726 Descending FlightAware ADS-B
Wed 01:27:21 PM 42.2380 -83.1710 25° Northeast 254 292 8,300 -1,895 Descending FlightAware ADS-B
Wed 01:27:49 PM 42.2700 -83.1510 25° Northeast 255 293 7,400 -2,063 Descending FlightAware ADS-B
Wed 01:28:25 PM 42.3080 -83.1300 22° Northeast 256 295 6,100 -2,000 Descending FlightAware ADS-B
Wed 01:28:58 PM 42.3400 -83.1480 337° Northwest 224 258 5,100 -1,457 Descending FlightAware ADS-B
Wed 01:29:35 PM 42.3350 -83.1930 261° West 209 241 4,400 -986 Descending FlightAware ADS-B
Wed 01:30:11 PM 42.3160 -83.2280 234° Southwest 176 203 3,900 -1,108 Descending FlightAware ADS-B
Wed 01:30:40 PM 42.3020 -83.2520 232° Southwest 156 180 3,200 -1,925 Descending FlightAware ADS-B
Wed 01:31:04 PM 42.2920 -83.2710 235° Southwest 162 186 2,200 -1,594 Descending FlightAware ADS-B
Wed 01:31:44 PM 42.2710 -83.2960 221° Southwest 155 178 1,500 -1,059 Descending FlightAware ADS-B
Wed 01:32:12 PM 42.2540 -83.3090 210° Southwest 135 155 1,000 -750 Descending FlightAware ADS-B
Wed 01:32:48 PM 42.2370 -83.3220 210° Southwest 111 128 700 -600 Descending FlightAware ADS-B
Wed 01:33:22 PM 42.2220 -83.3320 206° Southwest 110 127 300 -706 Descending FlightAware ADS-B

Login

Don't have an account? Register now (free) for customized features, flight alerts, and more!